Time;durP1;ratioP1;P1;durP2;ratioP2;P2;SDS_P1;SDS_P2;PMS_P1;PMS_P2;Temp;Humidity;BMP_temperature;BMP_pressure;BME280_temperature;BME280_humidity;BME280_pressure;Samples;Min_cycle;Max_cycle;Signal;HPM_P1;HPM_P2
2022/12/20 00:01:14;;;;;;;;;10.80;10.80;;;;;;;;5209507;28;8821;-71
2022/12/20 00:03:47;;;;;;;;;13.60;13.60;;;;;;;;5209408;28;9605;-70
2022/12/20 00:06:18;;;;;;;;;14.20;13.40;;;;;;;;5227552;28;8791;-70
2022/12/20 00:09:08;;;;;;;;;9.60;9.60;;;;;;;;5212573;28;8837;-68
2022/12/20 00:11:58;;;;;;;;;7.00;7.00;;;;;;;;5212135;28;8887;-70
2022/12/20 00:14:29;;;;;;;;;6.00;6.00;;;;;;;;5227453;28;8794;-72
2022/12/20 00:17:00;;;;;;;;;6.40;5.60;;;;;;;;5209081;28;8803;-73
2022/12/20 00:19:31;;;;;;;;;10.40;10.40;;;;;;;;5209395;28;8823;-72
2022/12/20 00:22:02;;;;;;;;;12.60;12.60;;;;;;;;5192649;28;8795;-71
2022/12/20 00:24:33;;;;;;;;;4.00;4.00;;;;;;;;5209432;28;8826;-71
2022/12/20 00:27:04;;;;;;;;;7.00;7.00;;;;;;;;5209242;28;8787;-71
2022/12/20 00:29:35;;;;;;;;;3.40;3.40;;;;;;;;5227012;28;8901;-71
2022/12/20 00:32:06;;;;;;;;;5.00;5.00;;;;;;;;5226752;28;8953;-71
2022/12/20 00:34:37;;;;;;;;;7.00;7.00;;;;;;;;5226536;28;10265;-69
2022/12/20 00:37:08;;;;;;;;;9.20;9.20;;;;;;;;5227026;28;11425;-69
2022/12/20 00:39:39;;;;;;;;;9.00;7.00;;;;;;;;5226535;28;9540;-70
2022/12/20 00:42:29;;;;;;;;;18.80;18.80;;;;;;;;5226661;28;11100;-72
2022/12/20 00:45:18;;;;;;;;;10.80;10.80;;;;;;;;5226477;28;8868;-71
2022/12/20 00:47:49;;;;;;;;;18.40;16.00;;;;;;;;5192150;28;8775;-71
2022/12/20 00:50:20;;;;;;;;;22.50;22.50;;;;;;;;5226387;28;9475;-72
2022/12/20 00:52:51;;;;;;;;;22.80;22.80;;;;;;;;5208637;28;8815;-71
2022/12/20 00:55:22;;;;;;;;;18.20;18.00;;;;;;;;5208596;28;8791;-72
2022/12/20 00:57:53;;;;;;;;;25.80;24.80;;;;;;;;5208381;28;8829;-72
2022/12/20 01:00:24;;;;;;;;;42.20;40.00;;;;;;;;5191696;28;8791;-72
2022/12/20 01:02:55;;;;;;;;;23.00;21.50;;;;;;;;5207262;28;8811;-71
2022/12/20 01:05:27;;;;;;;;;21.60;19.80;;;;;;;;5208424;28;9192;-72
2022/12/20 01:07:58;;;;;;;;;13.80;13.80;;;;;;;;5208427;28;8795;-72
2022/12/20 01:10:29;;;;;;;;;13.80;13.40;;;;;;;;5225828;28;8771;-72
2022/12/20 01:13:01;;;;;;;;;23.40;23.40;;;;;;;;5208707;28;8798;-71
2022/12/20 01:15:33;;;;;;;;;23.60;23.60;;;;;;;;5191808;28;8799;-72
2022/12/20 01:18:04;;;;;;;;;31.60;30.80;;;;;;;;5191757;28;8890;-71
2022/12/20 01:20:35;;;;;;;;;48.80;39.60;;;;;;;;5208123;28;8823;-71
2022/12/20 01:23:06;;;;;;;;;31.00;28.50;;;;;;;;5208032;28;8799;-72
2022/12/20 01:26:00;;;;;;;;;28.20;26.40;;;;;;;;5218519;28;10984;-72
2022/12/20 01:28:51;;;;;;;;;26.60;23.00;;;;;;;;5207657;28;8810;-71
2022/12/20 01:31:22;;;;;;;;;16.00;14.80;;;;;;;;5191736;28;9517;-71
2022/12/20 01:33:53;;;;;;;;;3.00;3.00;;;;;;;;5208036;28;8933;-70
2022/12/20 01:36:43;;;;;;;;;15.60;15.60;;;;;;;;5226205;28;8775;-70
2022/12/20 01:39:15;;;;;;;;;21.00;21.00;;;;;;;;5225851;28;8779;-70
2022/12/20 01:41:46;;;;;;;;;32.60;29.60;;;;;;;;5208065;28;8799;-70
2022/12/20 01:44:17;;;;;;;;;28.00;28.00;;;;;;;;5225506;28;8810;-70
2022/12/20 01:46:49;;;;;;;;;10.00;10.00;;;;;;;;5207782;28;8829;-70
2022/12/20 01:49:25;;;;;;;;;19.20;16.00;;;;;;;;5191565;28;8787;-70
2022/12/20 01:51:59;;;;;;;;;29.80;28.80;;;;;;;;5207562;28;9579;-72
2022/12/20 01:54:33;;;;;;;;;23.20;23.00;;;;;;;;5207969;28;8787;-72
2022/12/20 01:57:26;;;;;;;;;30.60;29.20;;;;;;;;5225461;28;8791;-72
2022/12/20 01:59:57;;;;;;;;;24.00;24.00;;;;;;;;5208969;28;8803;-72
2022/12/20 02:02:29;;;;;;;;;24.00;22.80;;;;;;;;5212172;28;8823;-72
2022/12/20 02:05:01;;;;;;;;;19.20;18.80;;;;;;;;5212730;28;8807;-72
2022/12/20 02:07:36;;;;;;;;;4.00;4.00;;;;;;;;5199527;28;8786;-70
2022/12/20 02:10:08;;;;;;;;;22.60;21.80;;;;;;;;5207835;28;8821;-70
2022/12/20 02:12:46;;;;;;;;;0.00;0.00;;;;;;;;5207132;28;8783;-70
2022/12/20 02:15:29;;;;;;;;;22.80;22.00;;;;;;;;5211856;28;8794;-69
2022/12/20 02:18:03;;;;;;;;;25.40;24.40;;;;;;;;5232461;28;8779;-70
2022/12/20 02:21:13;;;;;;;;;29.00;28.00;;;;;;;;5227452;28;8795;-72
2022/12/20 02:24:02;;;;;;;;;30.40;30.40;;;;;;;;5190917;28;8841;-72
2022/12/20 02:26:52;;;;;;;;;20.20;18.00;;;;;;;;5225123;28;8917;-71
2022/12/20 02:29:34;;;;;;;;;36.20;36.20;;;;;;;;5206908;28;9552;-71
2022/12/20 02:32:29;;;;;;;;;30.40;30.40;;;;;;;;5192555;28;8840;-70
2022/12/20 02:35:02;;;;;;;;;32.40;26.20;;;;;;;;5190012;28;8822;-69
2022/12/20 02:37:34;;;;;;;;;25.00;23.20;;;;;;;;5174407;28;8790;-69
2022/12/20 02:40:06;;;;;;;;;12.00;10.40;;;;;;;;5199622;28;8803;-69
2022/12/20 02:42:38;;;;;;;;;22.60;21.80;;;;;;;;5169754;28;8821;-69
2022/12/20 02:45:16;;;;;;;;;13.80;13.80;;;;;;;;5179138;28;8791;-70
2022/12/20 02:48:06;;;;;;;;;15.60;15.60;;;;;;;;5187055;28;8821;-69
2022/12/20 02:50:43;;;;;;;;;19.00;18.20;;;;;;;;5223339;28;8795;-69
2022/12/20 02:53:15;;;;;;;;;17.60;17.40;;;;;;;;5191152;28;8787;-68
2022/12/20 02:55:56;;;;;;;;;26.80;25.00;;;;;;;;5190769;28;8799;-71
2022/12/20 02:58:41;;;;;;;;;17.80;17.40;;;;;;;;5190131;28;8806;-69
2022/12/20 03:01:44;;;;;;;;;45.60;40.40;;;;;;;;5186078;28;8931;-69
2022/12/20 03:04:16;;;;;;;;;38.20;36.80;;;;;;;;5186851;28;8825;-70
2022/12/20 03:06:57;;;;;;;;;34.40;32.20;;;;;;;;5186436;28;8793;-70
2022/12/20 03:09:32;;;;;;;;;24.60;24.60;;;;;;;;5206081;28;8825;-70
2022/12/20 03:12:04;;;;;;;;;23.40;22.20;;;;;;;;5174275;28;8815;-71
2022/12/20 03:14:39;;;;;;;;;20.60;19.60;;;;;;;;5189733;28;8826;-69
2022/12/20 03:17:12;;;;;;;;;17.80;17.80;;;;;;;;5190555;28;8920;-70
2022/12/20 03:19:44;;;;;;;;;19.80;17.20;;;;;;;;5190715;28;8791;-70
2022/12/20 03:22:15;;;;;;;;;36.00;33.20;;;;;;;;5190240;28;9542;-69
2022/12/20 03:25:04;;;;;;;;;24.20;22.20;;;;;;;;5206460;28;8822;-71
2022/12/20 03:27:38;;;;;;;;;30.60;29.00;;;;;;;;5208399;28;8799;-68
2022/12/20 03:30:09;;;;;;;;;29.20;28.00;;;;;;;;5193687;28;8924;-70
2022/12/20 03:32:58;;;;;;;;;33.60;30.60;;;;;;;;5209635;28;8858;-70
2022/12/20 03:35:48;;;;;;;;;25.40;24.60;;;;;;;;5209941;28;8901;-69
2022/12/20 03:38:22;;;;;;;;;24.80;23.20;;;;;;;;5193300;28;9525;-69
2022/12/20 03:40:53;;;;;;;;;18.60;18.60;;;;;;;;5210243;28;8755;-69
2022/12/20 03:43:26;;;;;;;;;24.40;22.80;;;;;;;;5194101;28;8945;-69
2022/12/20 03:45:57;;;;;;;;;14.60;13.80;;;;;;;;5194165;28;8845;-69
2022/12/20 03:48:30;;;;;;;;;18.80;18.80;;;;;;;;5209933;28;8810;-69
2022/12/20 03:51:01;;;;;;;;;8.60;8.60;;;;;;;;5210406;28;8798;-70
2022/12/20 03:53:33;;;;;;;;;3.20;3.20;;;;;;;;5193926;28;9548;-70
2022/12/20 03:56:23;;;;;;;;;12.40;12.40;;;;;;;;5195905;28;8795;-70
2022/12/20 03:58:55;;;;;;;;;20.40;19.80;;;;;;;;5193560;28;8791;-70
2022/12/20 04:01:27;;;;;;;;;15.80;15.80;;;;;;;;5209355;28;8811;-70
2022/12/20 04:03:59;;;;;;;;;30.00;28.80;;;;;;;;5193657;28;8790;-70
2022/12/20 04:06:30;;;;;;;;;25.40;25.40;;;;;;;;5177771;28;8824;-70
2022/12/20 04:09:19;;;;;;;;;20.20;19.00;;;;;;;;5212521;28;8791;-70
2022/12/20 04:11:55;;;;;;;;;26.40;26.20;;;;;;;;5194798;28;8805;-70
2022/12/20 04:14:27;;;;;;;;;19.40;19.40;;;;;;;;5209584;28;8795;-70
2022/12/20 04:17:01;;;;;;;;;22.40;21.40;;;;;;;;5209510;28;9533;-70
2022/12/20 04:19:50;;;;;;;;;16.80;16.80;;;;;;;;5212331;28;8817;-70
2022/12/20 04:22:25;;;;;;;;;17.00;16.40;;;;;;;;5194875;28;8779;-70
2022/12/20 04:25:09;;;;;;;;;14.20;13.80;;;;;;;;5210957;28;9526;-70
2022/12/20 04:27:43;;;;;;;;;5.20;5.20;;;;;;;;5194502;28;8865;-70
2022/12/20 04:30:15;;;;;;;;;21.60;21.60;;;;;;;;5209952;28;8791;-69
2022/12/20 04:32:46;;;;;;;;;25.40;22.40;;;;;;;;5193504;28;8856;-69
2022/12/20 04:35:19;;;;;;;;;22.40;22.40;;;;;;;;5209520;28;8803;-71
2022/12/20 04:37:50;;;;;;;;;12.40;11.60;;;;;;;;5210499;28;8778;-70
2022/12/20 04:40:22;;;;;;;;;24.60;22.60;;;;;;;;5194040;28;8872;-70
2022/12/20 04:42:58;;;;;;;;;27.80;25.60;;;;;;;;5195303;28;8826;-69
2022/12/20 04:45:29;;;;;;;;;39.40;38.80;;;;;;;;5211129;28;8799;-69
2022/12/20 04:48:01;;;;;;;;;33.80;33.80;;;;;;;;5211359;28;8779;-70
2022/12/20 04:50:39;;;;;;;;;34.20;33.20;;;;;;;;5194433;28;8802;-69
2022/12/20 04:56:00;;;;;;;;;27.60;27.60;;;;;;;;5196977;28;8803;-69
2022/12/20 04:58:32;;;;;;;;;27.60;27.20;;;;;;;;5213087;28;8921;-69
2022/12/20 05:01:04;;;;;;;;;27.00;26.60;;;;;;;;5194921;28;9591;-69
2022/12/20 05:03:44;;;;;;;;;33.20;32.80;;;;;;;;5194331;28;8953;-69
2022/12/20 05:06:16;;;;;;;;;30.00;30.00;;;;;;;;5194689;28;8818;-68
2022/12/20 05:09:05;;;;;;;;;49.40;41.20;;;;;;;;5196994;28;8795;-68
2022/12/20 05:11:37;;;;;;;;;45.50;41.75;;;;;;;;5195337;28;8937;-69
2022/12/20 05:14:12;;;;;;;;;32.40;29.20;;;;;;;;5211591;28;8798;-70
2022/12/20 05:16:43;;;;;;;;;24.00;24.00;;;;;;;;5194650;28;8818;-70
2022/12/20 05:19:14;;;;;;;;;25.80;24.20;;;;;;;;5193694;28;8779;-70
2022/12/20 05:27:41;;;;;;;;;13.40;13.40;;;;;;;;5193720;28;9610;-69
2022/12/20 05:30:12;;;;;;;;;18.80;18.80;;;;;;;;5209918;28;8829;-69
2022/12/20 05:32:43;;;;;;;;;37.00;33.20;;;;;;;;5227758;28;8818;-70
2022/12/20 05:35:15;;;;;;;;;14.40;14.40;;;;;;;;5209965;28;8799;-69
2022/12/20 05:37:46;;;;;;;;;14.00;13.80;;;;;;;;5210271;28;8936;-70
2022/12/20 05:40:21;;;;;;;;;15.20;15.20;;;;;;;;5192189;28;8835;-70
2022/12/20 05:42:53;;;;;;;;;15.40;15.20;;;;;;;;5208280;28;8822;-69
2022/12/20 05:45:30;;;;;;;;;13.40;13.40;;;;;;;;5208481;28;8844;-69
2022/12/20 05:48:06;;;;;;;;;24.40;24.00;;;;;;;;5193461;28;8771;-69
2022/12/20 05:50:40;;;;;;;;;17.00;16.00;;;;;;;;5208084;28;8783;-69
2022/12/20 05:53:29;;;;;;;;;15.40;15.40;;;;;;;;5208004;28;9493;-69
2022/12/20 05:56:03;;;;;;;;;9.60;8.20;;;;;;;;5191248;28;8805;-69
2022/12/20 05:58:39;;;;;;;;;6.00;6.00;;;;;;;;5191880;28;8763;-68
2022/12/20 06:01:11;;;;;;;;;8.80;8.80;;;;;;;;5208012;28;8763;-70
2022/12/20 06:04:01;;;;;;;;;15.40;15.40;;;;;;;;5208067;28;8849;-72
2022/12/20 06:06:33;;;;;;;;;16.20;15.80;;;;;;;;5208181;28;8790;-70
2022/12/20 06:09:05;;;;;;;;;15.80;15.80;;;;;;;;5183889;28;8825;-71
2022/12/20 06:11:46;;;;;;;;;21.80;15.00;;;;;;;;5206930;28;8888;-71
2022/12/20 06:14:18;;;;;;;;;10.00;9.60;;;;;;;;5205739;28;8806;-70
2022/12/20 06:16:52;;;;;;;;;12.00;11.40;;;;;;;;5223208;28;9415;-70
2022/12/20 06:19:24;;;;;;;;;13.00;13.00;;;;;;;;5189424;28;8852;-70
2022/12/20 06:21:58;;;;;;;;;34.40;31.40;;;;;;;;5205843;28;8787;-70
2022/12/20 06:24:42;;;;;;;;;19.80;19.40;;;;;;;;5205720;28;9032;-72
2022/12/20 06:27:13;;;;;;;;;13.40;13.00;;;;;;;;5205668;28;8817;-71
2022/12/20 06:29:50;;;;;;;;;18.60;17.20;;;;;;;;5189531;28;8827;-71
2022/12/20 06:32:25;;;;;;;;;12.40;12.40;;;;;;;;5188756;28;8795;-73
2022/12/20 06:34:58;;;;;;;;;13.80;13.80;;;;;;;;5205165;28;8818;-68
2022/12/20 06:37:47;;;;;;;;;11.60;11.60;;;;;;;;5205872;28;8787;-70
2022/12/20 06:40:18;;;;;;;;;23.00;23.00;;;;;;;;5205725;28;8828;-69
2022/12/20 06:42:49;;;;;;;;;21.20;19.60;;;;;;;;5188673;28;8846;-69
2022/12/20 06:45:22;;;;;;;;;21.40;21.20;;;;;;;;5188943;28;8865;-68
2022/12/20 06:47:53;;;;;;;;;14.60;14.00;;;;;;;;5205556;28;8798;-70
2022/12/20 06:50:26;;;;;;;;;6.60;6.60;;;;;;;;5189098;28;8941;-69
2022/12/20 06:52:57;;;;;;;;;9.60;9.60;;;;;;;;5188776;28;8806;-71
2022/12/20 06:55:49;;;;;;;;;13.60;12.60;;;;;;;;5191050;28;8814;-71
2022/12/20 06:58:21;;;;;;;;;7.40;7.40;;;;;;;;5189682;28;9579;-69
2022/12/20 07:00:53;;;;;;;;;7.40;7.40;;;;;;;;5185254;28;8857;-70
2022/12/20 07:03:24;;;;;;;;;9.00;9.00;;;;;;;;5205810;28;9587;-70
2022/12/20 07:05:55;;;;;;;;;5.20;5.20;;;;;;;;5194028;28;8782;-70
2022/12/20 07:08:27;;;;;;;;;3.80;3.80;;;;;;;;5211334;28;8774;-69
2022/12/20 07:11:05;;;;;;;;;6.20;6.00;;;;;;;;5204326;28;8782;-71
2022/12/20 07:13:36;;;;;;;;;6.80;6.80;;;;;;;;5174671;28;8917;-69
2022/12/20 07:16:25;;;;;;;;;6.60;5.60;;;;;;;;5176965;28;8782;-70
2022/12/20 07:19:15;;;;;;;;;4.00;4.00;;;;;;;;5190589;28;8824;-70
2022/12/20 07:21:46;;;;;;;;;4.40;4.40;;;;;;;;5190886;28;9529;-70
2022/12/20 07:24:17;;;;;;;;;1.00;1.00;;;;;;;;5208017;28;8906;-69
2022/12/20 07:26:48;;;;;;;;;9.40;9.40;;;;;;;;5173759;28;8816;-70
2022/12/20 07:29:20;;;;;;;;;9.00;9.00;;;;;;;;5210344;28;8795;-70
2022/12/20 07:31:51;;;;;;;;;9.00;9.00;;;;;;;;5228376;28;8775;-70
2022/12/20 07:34:22;;;;;;;;;8.00;8.00;;;;;;;;5210825;28;8802;-71
2022/12/20 07:36:53;;;;;;;;;6.60;6.60;;;;;;;;5178064;28;8779;-70
2022/12/20 07:39:25;;;;;;;;;7.00;7.00;;;;;;;;5178135;28;9518;-70
2022/12/20 07:42:15;;;;;;;;;1.00;1.00;;;;;;;;5196565;28;9517;-70
2022/12/20 07:45:05;;;;;;;;;9.00;9.00;;;;;;;;5196726;28;8788;-70
2022/12/20 07:47:36;;;;;;;;;5.20;5.20;;;;;;;;5193467;28;8784;-71
2022/12/20 07:50:07;;;;;;;;;4.80;4.00;;;;;;;;5177115;28;8795;-70
2022/12/20 07:52:40;;;;;;;;;3.00;3.00;;;;;;;;5210457;28;8771;-70
2022/12/20 07:55:12;;;;;;;;;3.00;3.00;;;;;;;;5177499;28;8779;-69
2022/12/20 07:57:49;;;;;;;;;5.60;5.60;;;;;;;;5210308;28;8821;-70
2022/12/20 08:00:38;;;;;;;;;5.60;5.60;;;;;;;;5195952;28;8787;-70
2022/12/20 08:03:14;;;;;;;;;2.50;2.50;;;;;;;;5209685;28;8823;-69
2022/12/20 08:06:04;;;;;;;;;7.60;7.60;;;;;;;;5196236;28;11468;-71
2022/12/20 08:08:37;;;;;;;;;9.00;9.00;;;;;;;;5173889;28;9532;-69
2022/12/20 08:11:09;;;;;;;;;4.20;3.40;;;;;;;;5176402;28;8947;-69
2022/12/20 08:13:41;;;;;;;;;12.00;8.20;;;;;;;;5189923;28;8795;-71
2022/12/20 08:16:12;;;;;;;;;23.40;21.40;;;;;;;;5206249;28;8911;-69
2022/12/20 08:18:43;;;;;;;;;12.40;12.40;;;;;;;;5207093;28;8931;-69
2022/12/20 08:21:32;;;;;;;;;7.80;7.80;;;;;;;;5192138;28;8785;-70
2022/12/20 08:24:21;;;;;;;;;10.80;10.80;;;;;;;;5223980;28;8826;-69
2022/12/20 08:26:52;;;;;;;;;11.00;11.00;;;;;;;;5227781;28;8783;-69
2022/12/20 08:29:23;;;;;;;;;25.50;24.25;;;;;;;;5210231;28;8823;-70
2022/12/20 08:31:54;;;;;;;;;12.40;12.20;;;;;;;;5217383;28;11508;-70
2022/12/20 08:34:25;;;;;;;;;13.00;12.20;;;;;;;;5239066;28;8795;-70
2022/12/20 08:36:56;;;;;;;;;18.00;16.80;;;;;;;;5238848;28;8798;-69
2022/12/20 08:39:27;;;;;;;;;4.00;4.00;;;;;;;;5229747;28;8801;-69
2022/12/20 08:42:17;;;;;;;;;3.00;3.00;;;;;;;;5209916;28;12169;-70
2022/12/20 08:44:48;;;;;;;;;3.50;3.50;;;;;;;;5228316;28;8818;-71
2022/12/20 08:47:18;;;;;;;;;5.20;5.20;;;;;;;;5210302;28;10133;-70
2022/12/20 08:50:08;;;;;;;;;5.60;4.00;;;;;;;;5213291;28;8810;-70
2022/12/20 08:52:39;;;;;;;;;6.60;6.60;;;;;;;;5193335;28;8778;-70
2022/12/20 08:55:10;;;;;;;;;1.80;1.80;;;;;;;;5210314;28;8872;-70
2022/12/20 08:57:41;;;;;;;;;7.00;7.00;;;;;;;;5194442;28;8775;-70
2022/12/20 09:00:13;;;;;;;;;4.50;4.50;;;;;;;;5231007;28;10216;-70
2022/12/20 09:03:02;;;;;;;;;6.60;6.60;;;;;;;;5212166;28;11406;-70
2022/12/20 09:05:52;;;;;;;;;8.20;8.20;;;;;;;;5230515;28;8834;-69
2022/12/20 09:08:23;;;;;;;;;3.60;3.60;;;;;;;;5182085;28;8823;-69
2022/12/20 09:11:02;;;;;;;;;7.00;7.00;;;;;;;;5194656;28;9676;-70
2022/12/20 09:13:33;;;;;;;;;4.40;4.40;;;;;;;;5195469;28;8823;-70
2022/12/20 09:16:24;;;;;;;;;3.80;3.80;;;;;;;;5216792;28;8798;-71
2022/12/20 09:18:57;;;;;;;;;3.00;3.00;;;;;;;;5194355;28;8884;-71
2022/12/20 09:21:28;;;;;;;;;3.00;3.00;;;;;;;;5209287;28;9518;-72
2022/12/20 09:24:18;;;;;;;;;6.40;5.60;;;;;;;;5174157;28;8821;-72
2022/12/20 09:26:49;;;;;;;;;6.75;5.75;;;;;;;;5172044;28;8797;-72
2022/12/20 09:29:20;;;;;;;;;4.50;4.50;;;;;;;;5208817;28;11389;-72
2022/12/20 09:31:51;;;;;;;;;3.00;3.00;;;;;;;;5188393;28;9509;-72
2022/12/20 09:34:21;;;;;;;;;9.25;8.75;;;;;;;;5205663;28;8926;-71
2022/12/20 09:36:52;;;;;;;;;3.25;3.25;;;;;;;;5215656;28;8821;-71
2022/12/20 09:39:42;;;;;;;;;1.00;1.00;;;;;;;;5226340;28;8802;-72
2022/12/20 09:42:31;;;;;;;;;6.80;5.60;;;;;;;;5208244;28;8775;-71
2022/12/20 09:45:05;;;;;;;;;11.80;10.40;;;;;;;;5192413;28;9646;-71
2022/12/20 09:47:36;;;;;;;;;14.40;13.40;;;;;;;;5208273;28;8795;-72
2022/12/20 09:50:14;;;;;;;;;25.20;24.40;;;;;;;;5225997;28;8770;-71
2022/12/20 09:53:01;;;;;;;;;17.60;17.60;;;;;;;;5191569;28;8795;-70
2022/12/20 09:55:39;;;;;;;;;8.40;8.40;;;;;;;;5171552;28;8765;-71
2022/12/20 09:58:26;;;;;;;;;18.00;18.00;;;;;;;;5188008;28;8800;-71
2022/12/20 10:00:57;;;;;;;;;21.40;21.00;;;;;;;;5187402;28;8781;-72
2022/12/20 10:03:30;;;;;;;;;18.60;18.60;;;;;;;;5170945;28;9611;-72
2022/12/20 10:06:23;;;;;;;;;20.20;17.60;;;;;;;;5205285;28;8784;-71
2022/12/20 10:09:12;;;;;;;;;34.60;33.20;;;;;;;;5205009;28;9529;-72
2022/12/20 10:12:08;;;;;;;;;14.80;14.80;;;;;;;;5203670;28;8815;-72
2022/12/20 10:14:57;;;;;;;;;19.60;16.40;;;;;;;;5191802;28;9540;-71
2022/12/20 10:17:27;;;;;;;;;22.20;18.40;;;;;;;;5206649;28;8849;-71
2022/12/20 10:20:11;;;;;;;;;6.75;6.75;;;;;;;;5192458;28;8779;-71
2022/12/20 10:23:00;;;;;;;;;3.80;3.80;;;;;;;;5192262;28;8775;-72
2022/12/20 10:25:33;;;;;;;;;9.80;9.80;;;;;;;;5191601;28;8779;-71
2022/12/20 10:28:26;;;;;;;;;4.80;4.80;;;;;;;;5210528;28;8827;-71
2022/12/20 10:30:59;;;;;;;;;0.80;0.80;;;;;;;;5225642;28;8778;-72
2022/12/20 10:33:30;;;;;;;;;10.60;9.20;;;;;;;;5206438;28;8775;-72
2022/12/20 10:36:20;;;;;;;;;5.20;5.00;;;;;;;;5209786;28;8783;-72
2022/12/20 10:39:02;;;;;;;;;6.00;5.60;;;;;;;;5211833;28;8793;-71
2022/12/20 10:41:47;;;;;;;;;5.20;5.20;;;;;;;;5196570;28;8775;-71
2022/12/20 10:44:18;;;;;;;;;23.80;23.00;;;;;;;;5228110;28;8811;-70
2022/12/20 10:46:52;;;;;;;;;18.40;17.40;;;;;;;;5211456;28;8787;-69
2022/12/20 10:49:34;;;;;;;;;20.80;16.40;;;;;;;;5212061;28;8803;-71
2022/12/20 10:52:07;;;;;;;;;6.20;6.20;;;;;;;;5195260;28;8751;-70
2022/12/20 10:54:57;;;;;;;;;4.00;4.00;;;;;;;;5208552;28;8920;-71
2022/12/20 10:57:30;;;;;;;;;8.00;8.00;;;;;;;;5208691;28;8891;-71
2022/12/20 11:00:04;;;;;;;;;7.00;7.00;;;;;;;;5174267;28;8789;-71
2022/12/20 11:02:39;;;;;;;;;1.40;1.40;;;;;;;;5174267;28;8828;-71
2022/12/20 11:05:10;;;;;;;;;0.00;0.00;;;;;;;;5191106;28;8838;-70
2022/12/20 11:07:50;;;;;;;;;4.00;4.00;;;;;;;;5197084;28;8787;-70
2022/12/20 11:10:26;;;;;;;;;4.00;4.00;;;;;;;;5195445;28;9970;-71
2022/12/20 11:12:58;;;;;;;;;3.40;3.40;;;;;;;;5205474;28;8783;-71
2022/12/20 11:15:47;;;;;;;;;9.00;9.00;;;;;;;;5211280;28;8850;-71
2022/12/20 11:18:36;;;;;;;;;3.40;3.40;;;;;;;;5186214;28;8797;-71
2022/12/20 11:21:17;;;;;;;;;4.00;4.00;;;;;;;;5190623;28;8773;-70
2022/12/20 11:23:57;;;;;;;;;9.20;9.20;;;;;;;;5190627;28;8817;-70
2022/12/20 11:26:58;;;;;;;;;12.20;12.00;;;;;;;;5207671;28;8781;-71
2022/12/20 11:29:43;;;;;;;;;3.60;3.20;;;;;;;;5193470;28;8800;-71
2022/12/20 11:32:15;;;;;;;;;15.60;15.60;;;;;;;;5177953;28;8859;-73
2022/12/20 11:35:01;;;;;;;;;24.20;23.20;;;;;;;;5175678;28;9480;-72
2022/12/20 11:37:59;;;;;;;;;16.60;15.80;;;;;;;;5159910;28;8761;-72
2022/12/20 11:40:31;;;;;;;;;6.60;6.60;;;;;;;;5167561;28;8938;-72
2022/12/20 11:43:15;;;;;;;;;7.80;7.80;;;;;;;;5158187;28;8833;-72
2022/12/20 11:45:49;;;;;;;;;6.40;6.40;;;;;;;;5159056;28;8904;-70
2022/12/20 11:48:33;;;;;;;;;10.00;9.60;;;;;;;;5158484;28;8943;-71
2022/12/20 11:51:08;;;;;;;;;7.80;7.80;;;;;;;;5158196;28;8803;-72
2022/12/20 11:53:58;;;;;;;;;16.40;16.00;;;;;;;;5176543;28;8816;-72
2022/12/20 11:56:35;;;;;;;;;8.60;8.60;;;;;;;;5174480;28;8777;-72
2022/12/20 11:59:14;;;;;;;;;7.20;6.40;;;;;;;;5157462;28;8916;-74
2022/12/20 12:01:48;;;;;;;;;15.40;10.00;;;;;;;;5173351;28;9018;-73
2022/12/20 12:04:22;;;;;;;;;12.40;12.00;;;;;;;;5157440;28;8825;-73
2022/12/20 12:07:13;;;;;;;;;21.40;20.20;;;;;;;;5180856;28;8822;-72
2022/12/20 12:10:06;;;;;;;;;13.80;13.60;;;;;;;;5194331;28;8806;-71
2022/12/20 12:12:50;;;;;;;;;9.60;9.60;;;;;;;;5193698;28;9518;-72
2022/12/20 12:15:21;;;;;;;;;7.20;7.20;;;;;;;;5193720;28;8793;-72
2022/12/20 12:18:22;;;;;;;;;8.60;8.60;;;;;;;;5194214;28;8783;-71
2022/12/20 12:20:54;;;;;;;;;8.20;8.20;;;;;;;;5168054;28;8857;-71
2022/12/20 12:23:39;;;;;;;;;45.25;41.50;;;;;;;;5194552;28;9541;-72
2022/12/20 12:26:17;;;;;;;;;12.40;12.40;;;;;;;;5194137;28;8783;-72
2022/12/20 12:28:55;;;;;;;;;4.00;4.00;;;;;;;;5178913;28;8782;-72
2022/12/20 12:32:00;;;;;;;;;4.40;4.40;;;;;;;;5210007;28;8795;-72
2022/12/20 12:34:35;;;;;;;;;7.00;7.00;;;;;;;;5194378;28;8856;-72
2022/12/20 12:37:12;;;;;;;;;6.80;5.60;;;;;;;;5210091;28;8803;-72
2022/12/20 12:39:44;;;;;;;;;9.00;9.00;;;;;;;;5193330;28;8807;-72
2022/12/20 12:42:35;;;;;;;;;10.40;10.40;;;;;;;;5194166;28;8787;-73
2022/12/20 12:45:35;;;;;;;;;11.60;10.80;;;;;;;;5212407;28;8845;-72
2022/12/20 12:48:25;;;;;;;;;11.60;11.20;;;;;;;;5193420;28;8779;-72
2022/12/20 12:50:57;;;;;;;;;13.00;12.40;;;;;;;;5172639;28;8924;-72
2022/12/20 12:53:36;;;;;;;;;7.00;6.60;;;;;;;;5172682;28;8793;-72
2022/12/20 12:56:29;;;;;;;;;13.00;11.60;;;;;;;;5195440;28;8956;-72
2022/12/20 12:59:08;;;;;;;;;13.40;13.40;;;;;;;;5193051;28;8809;-72
2022/12/20 13:01:55;;;;;;;;;17.80;16.80;;;;;;;;5193840;28;9521;-72
2022/12/20 13:04:28;;;;;;;;;12.00;11.60;;;;;;;;5193331;28;8814;-73
2022/12/20 13:07:31;;;;;;;;;14.20;14.20;;;;;;;;5196062;28;8880;-72
2022/12/20 13:10:09;;;;;;;;;12.00;11.20;;;;;;;;5171884;28;8797;-73
2022/12/20 13:12:40;;;;;;;;;16.60;15.80;;;;;;;;5162587;28;8803;-71
2022/12/20 13:15:21;;;;;;;;;27.20;24.60;;;;;;;;5210302;28;8848;-73
2022/12/20 13:17:54;;;;;;;;;21.25;20.75;;;;;;;;5193087;28;8786;-72
2022/12/20 13:21:03;;;;;;;;;11.40;11.40;;;;;;;;5195553;28;9598;-72
2022/12/20 13:23:35;;;;;;;;;23.20;23.20;;;;;;;;5176745;28;8826;-72
2022/12/20 13:26:26;;;;;;;;;30.80;29.40;;;;;;;;5193196;28;8790;-71
2022/12/20 13:29:17;;;;;;;;;18.40;16.40;;;;;;;;5192692;28;9648;-74
2022/12/20 13:31:48;;;;;;;;;13.40;11.00;;;;;;;;5177171;28;8956;-71
2022/12/20 13:34:58;;;;;;;;;27.00;26.60;;;;;;;;5192588;28;8818;-72
2022/12/20 13:37:52;;;;;;;;;36.75;32.50;;;;;;;;5163123;28;8851;-71
2022/12/20 13:40:45;;;;;;;;;34.00;28.50;;;;;;;;5163068;28;8777;-72
2022/12/20 13:43:23;;;;;;;;;33.25;31.75;;;;;;;;5166174;28;8828;-72
2022/12/20 13:46:12;;;;;;;;;42.00;40.50;;;;;;;;5172719;28;8911;-72
2022/12/20 13:48:51;;;;;;;;;34.25;32.50;;;;;;;;5174155;28;8777;-72
2022/12/20 13:51:24;;;;;;;;;40.50;36.50;;;;;;;;5156947;28;8805;-71
2022/12/20 13:53:56;;;;;;;;;52.50;45.50;;;;;;;;5200763;28;8845;-72
2022/12/20 13:56:31;;;;;;;;;58.00;48.50;;;;;;;;5226132;28;8778;-72
2022/12/20 13:59:11;;;;;;;;;44.00;42.00;;;;;;;;5191967;28;8791;-72
2022/12/20 14:01:47;;;;;;;;;36.25;32.75;;;;;;;;5191784;28;8815;-72
2022/12/20 14:04:18;;;;;;;;;31.00;28.50;;;;;;;;5226354;28;8803;-72
2022/12/20 14:06:51;;;;;;;;;16.50;16.50;;;;;;;;5208330;28;8783;-73
2022/12/20 14:09:32;;;;;;;;;38.00;33.25;;;;;;;;5207519;28;8837;-71
2022/12/20 14:12:05;;;;;;;;;11.00;10.00;;;;;;;;5208626;28;8775;-71
2022/12/20 14:14:37;;;;;;;;;37.00;36.00;;;;;;;;5208126;28;8803;-71
2022/12/20 14:17:15;;;;;;;;;43.00;41.00;;;;;;;;5226073;28;8841;-71
2022/12/20 14:19:46;;;;;;;;;38.75;36.50;;;;;;;;5208039;28;8782;-71
2022/12/20 14:22:17;;;;;;;;;54.67;48.33;;;;;;;;5226059;28;8821;-71
2022/12/20 14:24:48;;;;;;;;;57.00;49.00;;;;;;;;5225557;28;8818;-71
2022/12/20 14:27:19;;;;;;;;;37.50;35.00;;;;;;;;5207242;28;9474;-71
2022/12/20 14:29:50;;;;;;;;;55.25;48.25;;;;;;;;5225324;28;8787;-71
2022/12/20 14:32:22;;;;;;;;;59.00;48.25;;;;;;;;5190529;28;8933;-71
2022/12/20 14:34:53;;;;;;;;;54.50;47.25;;;;;;;;5191558;28;9513;-72
2022/12/20 14:37:28;;;;;;;;;68.33;58.00;;;;;;;;5208780;28;8818;-72
2022/12/20 14:40:08;;;;;;;;;66.67;57.00;;;;;;;;5208569;28;8860;-71
2022/12/20 14:42:40;;;;;;;;;47.25;43.75;;;;;;;;5171337;28;8886;-73
2022/12/20 14:45:29;;;;;;;;;52.25;48.00;;;;;;;;5191397;28;8799;-74
2022/12/20 14:48:06;;;;;;;;;39.00;38.33;;;;;;;;5193570;28;9610;-75
2022/12/20 14:50:39;;;;;;;;;39.75;38.75;;;;;;;;5190682;28;11614;-73
2022/12/20 14:53:19;;;;;;;;;35.75;35.75;;;;;;;;5225894;28;8783;-72
2022/12/20 14:55:57;;;;;;;;;42.25;40.00;;;;;;;;5211101;28;8783;-72
2022/12/20 14:58:32;;;;;;;;;53.00;48.00;;;;;;;;5210393;28;8917;-70
2022/12/20 15:01:20;;;;;;;;;34.00;33.50;;;;;;;;5216851;28;8791;-72
2022/12/20 15:03:53;;;;;;;;;65.50;55.25;;;;;;;;5219059;28;8827;-72
2022/12/20 15:06:46;;;;;;;;;47.75;46.00;;;;;;;;5216145;28;8795;-71
2022/12/20 15:09:21;;;;;;;;;62.25;51.00;;;;;;;;5193113;28;8913;-72
2022/12/20 15:11:52;;;;;;;;;73.00;58.67;;;;;;;;5207921;28;9529;-71
2022/12/20 15:14:41;;;;;;;;;40.00;37.75;;;;;;;;5210065;28;9523;-74
2022/12/20 15:17:14;;;;;;;;;48.00;46.00;;;;;;;;5226032;28;9553;-72
2022/12/20 15:19:48;;;;;;;;;58.67;49.00;;;;;;;;5191011;28;8833;-73
2022/12/20 15:22:20;;;;;;;;;79.00;58.67;;;;;;;;5208157;28;9782;-74
2022/12/20 15:25:16;;;;;;;;;43.00;35.75;;;;;;;;5197624;28;9883;-72
2022/12/20 15:27:50;;;;;;;;;32.50;29.00;;;;;;;;5173469;28;8817;-73
2022/12/20 15:30:30;;;;;;;;;28.50;27.00;;;;;;;;5190639;28;8804;-71
2022/12/20 15:33:01;;;;;;;;;40.25;37.25;;;;;;;;5229884;28;8775;-72
2022/12/20 15:35:32;;;;;;;;;11.00;9.33;;;;;;;;5231138;28;8825;-72
2022/12/20 15:38:23;;;;;;;;;56.50;49.25;;;;;;;;5212926;28;9894;-72
2022/12/20 15:40:59;;;;;;;;;39.00;36.75;;;;;;;;5208255;28;8853;-74
2022/12/20 15:43:33;;;;;;;;;63.75;51.00;;;;;;;;5192332;28;8810;-74
2022/12/20 15:46:05;;;;;;;;;41.50;39.75;;;;;;;;5192219;28;8901;-72
2022/12/20 15:48:36;;;;;;;;;39.25;31.00;;;;;;;;5209056;28;8806;-72